Time;durP1;ratioP1;P1;durP2;ratioP2;P2;SDS_P1;SDS_P2;PMS_P1;PMS_P2;Temp;Humidity;BMP_temperature;BMP_pressure;BME280_temperature;BME280_humidity;BME280_pressure;Samples;Min_cycle;Max_cycle;Signal;HPM_P1;HPM_P2
2023/01/14 00:01:55;;;;;;;6.50;2.13;;;;;;;;;;4950489;28;20118;-70
2023/01/14 00:04:22;;;;;;;6.32;2.15;;;;;;;;;;4956038;28;20047;-69
2023/01/14 00:06:50;;;;;;;5.63;1.92;;;;;;;;;;4972752;28;20048;-70
2023/01/14 00:09:35;;;;;;;5.45;2.15;;;;;;;;;;5000095;28;20034;-70
2023/01/14 00:12:02;;;;;;;7.88;2.78;;;;;;;;;;4998455;28;20042;-68
2023/01/14 00:14:30;;;;;;;8.50;3.13;;;;;;;;;;5001441;28;20038;-70
2023/01/14 00:16:57;;;;;;;7.97;2.80;;;;;;;;;;5003781;28;20091;-68
2023/01/14 00:19:27;;;;;;;10.68;3.63;;;;;;;;;;5002062;28;20703;-69
2023/01/14 00:21:57;;;;;;;12.60;3.47;;;;;;;;;;5002951;28;20458;-70
2023/01/14 00:24:24;;;;;;;14.07;3.15;;;;;;;;;;5007240;28;21034;-70
2023/01/14 00:26:51;;;;;;;8.05;3.38;;;;;;;;;;5002620;28;20041;-70
2023/01/14 00:29:21;;;;;;;10.82;3.33;;;;;;;;;;4997043;28;20049;-71
2023/01/14 00:31:47;;;;;;;8.68;2.72;;;;;;;;;;5001424;28;20081;-70
2023/01/14 00:34:15;;;;;;;15.85;3.50;;;;;;;;;;5002934;28;20046;-70
2023/01/14 00:36:44;;;;;;;8.10;2.95;;;;;;;;;;4999888;28;20093;-70
2023/01/14 00:39:10;;;;;;;9.18;3.28;;;;;;;;;;5000924;28;20103;-69
2023/01/14 00:41:37;;;;;;;13.43;3.70;;;;;;;;;;5022758;28;20115;-70
2023/01/14 00:44:04;;;;;;;12.57;3.22;;;;;;;;;;5028021;28;20640;-70
2023/01/14 00:46:32;;;;;;;10.77;3.90;;;;;;;;;;5024662;28;20375;-70
2023/01/14 00:49:00;;;;;;;10.43;3.92;;;;;;;;;;5026444;28;20044;-69
2023/01/14 00:51:28;;;;;;;8.52;3.53;;;;;;;;;;5022585;28;20529;-69
2023/01/14 00:53:56;;;;;;;14.82;3.92;;;;;;;;;;5028291;28;20143;-70
2023/01/14 00:56:24;;;;;;;24.48;8.80;;;;;;;;;;5007710;28;20461;-69
2023/01/14 00:58:51;;;;;;;14.30;4.55;;;;;;;;;;5005363;28;20044;-68
2023/01/14 01:01:18;;;;;;;16.45;3.30;;;;;;;;;;5028060;28;20046;-69
2023/01/14 01:03:49;;;;;;;16.45;3.95;;;;;;;;;;5027843;28;20045;-68
2023/01/14 01:06:17;;;;;;;9.38;4.10;;;;;;;;;;5026849;28;20825;-68
2023/01/14 01:08:44;;;;;;;13.20;4.13;;;;;;;;;;5026144;28;20040;-70
2023/01/14 01:11:11;;;;;;;15.45;3.90;;;;;;;;;;5030322;28;20887;-69
2023/01/14 01:13:38;;;;;;;11.80;4.10;;;;;;;;;;5027739;28;20150;-71
2023/01/14 01:16:07;;;;;;;13.57;4.28;;;;;;;;;;5027623;28;20033;-69
2023/01/14 01:18:33;;;;;;;11.10;3.75;;;;;;;;;;5021146;28;20194;-69
2023/01/14 01:21:05;;;;;;;11.18;4.20;;;;;;;;;;5003480;28;20037;-71
2023/01/14 01:23:31;;;;;;;12.80;3.65;;;;;;;;;;5027299;28;20048;-67
2023/01/14 01:25:59;;;;;;;16.95;4.80;;;;;;;;;;5006595;28;20093;-69
2023/01/14 01:28:26;;;;;;;13.77;4.35;;;;;;;;;;5024037;28;20037;-69
2023/01/14 01:30:52;;;;;;;12.48;4.30;;;;;;;;;;5027504;28;20055;-69
2023/01/14 01:33:19;;;;;;;13.07;4.68;;;;;;;;;;5027918;28;20049;-71
2023/01/14 01:35:46;;;;;;;11.18;4.13;;;;;;;;;;5011254;28;20084;-71
2023/01/14 01:38:12;;;;;;;25.52;10.25;;;;;;;;;;5028042;28;20175;-71
2023/01/14 01:40:39;;;;;;;19.00;8.18;;;;;;;;;;5015273;28;20511;-71
2023/01/14 01:43:10;;;;;;;14.00;5.30;;;;;;;;;;5030044;28;20041;-69
2023/01/14 01:45:38;;;;;;;13.63;6.30;;;;;;;;;;5030084;28;20485;-70
2023/01/14 01:48:10;;;;;;;18.05;5.40;;;;;;;;;;5029220;28;20402;-69
2023/01/14 01:50:36;;;;;;;14.98;4.10;;;;;;;;;;5029976;28;20048;-69
2023/01/14 01:53:04;;;;;;;11.15;4.47;;;;;;;;;;5030281;28;20048;-69
2023/01/14 01:55:32;;;;;;;17.60;5.57;;;;;;;;;;5032526;28;20045;-70
2023/01/14 01:57:59;;;;;;;15.27;5.53;;;;;;;;;;5032636;28;20525;-71
2023/01/14 02:00:27;;;;;;;22.33;5.53;;;;;;;;;;5032017;28;20213;-69
2023/01/14 02:02:58;;;;;;;20.90;7.30;;;;;;;;;;5034207;28;20083;-70
2023/01/14 02:05:25;;;;;;;26.58;7.70;;;;;;;;;;5029275;28;20627;-70
2023/01/14 02:07:51;;;;;;;26.63;8.30;;;;;;;;;;5027289;28;20204;-69
2023/01/14 02:10:18;;;;;;;15.95;6.70;;;;;;;;;;5028563;28;20040;-69
2023/01/14 02:12:48;;;;;;;25.50;10.68;;;;;;;;;;5028087;28;20048;-70
2023/01/14 02:15:30;;;;;;;20.35;7.88;;;;;;;;;;5022698;28;20068;-69
2023/01/14 02:18:02;;;;;;;17.20;5.53;;;;;;;;;;5025986;28;20065;-70
2023/01/14 02:20:28;;;;;;;13.10;5.72;;;;;;;;;;5027848;28;20584;-68
2023/01/14 02:23:05;;;;;;;8.90;4.80;;;;;;;;;;5022026;28;20120;-68
2023/01/14 02:25:51;;;;;;;19.90;5.88;;;;;;;;;;5022337;28;20546;-70
2023/01/14 02:28:29;;;;;;;16.52;5.18;;;;;;;;;;5030018;28;20061;-70
2023/01/14 02:31:13;;;;;;;12.07;5.47;;;;;;;;;;5009049;28;20029;-70
2023/01/14 02:33:43;;;;;;;15.38;5.57;;;;;;;;;;5027008;28;20041;-70
2023/01/14 02:36:27;;;;;;;16.83;5.45;;;;;;;;;;5026285;28;20078;-71
2023/01/14 02:39:13;;;;;;;16.77;5.28;;;;;;;;;;5027888;28;20041;-70
2023/01/14 02:44:38;;;;;;;20.25;6.45;;;;;;;;;;5027267;28;20110;-70
2023/01/14 02:47:14;;;;;;;14.50;4.32;;;;;;;;;;5027129;28;20037;-70
2023/01/14 02:49:42;;;;;;;16.27;5.35;;;;;;;;;;5026677;28;20458;-69
2023/01/14 02:52:11;;;;;;;24.00;5.72;;;;;;;;;;5027165;28;20416;-69
2023/01/14 02:54:38;;;;;;;18.80;5.43;;;;;;;;;;5027390;28;20045;-69
2023/01/14 02:57:12;;;;;;;11.10;4.70;;;;;;;;;;5009274;28;20042;-70
2023/01/14 02:59:58;;;;;;;19.70;5.70;;;;;;;;;;5026570;28;20053;-70
2023/01/14 03:02:36;;;;;;;14.20;4.53;;;;;;;;;;5026638;28;20106;-69
2023/01/14 03:05:21;;;;;;;11.82;4.55;;;;;;;;;;5027669;28;20506;-70
2023/01/14 03:07:55;;;;;;;15.93;4.72;;;;;;;;;;5027232;28;20516;-69
2023/01/14 03:10:24;;;;;;;17.10;4.82;;;;;;;;;;5029695;28;20037;-69
2023/01/14 03:12:56;;;;;;;10.10;4.20;;;;;;;;;;5022648;28;20510;-69
2023/01/14 03:15:49;;;;;;;14.37;3.97;;;;;;;;;;5028666;28;20050;-70
2023/01/14 03:18:31;;;;;;;12.95;4.82;;;;;;;;;;5006826;28;20287;-68
2023/01/14 03:21:02;;;;;;;10.13;4.35;;;;;;;;;;5036931;28;20129;-69
2023/01/14 03:23:31;;;;;;;10.55;3.92;;;;;;;;;;5033652;28;20040;-68
2023/01/14 03:25:58;;;;;;;15.32;4.43;;;;;;;;;;5027247;28;20128;-69
2023/01/14 03:28:29;;;;;;;17.88;5.03;;;;;;;;;;5024760;28;20453;-68
2023/01/14 03:31:05;;;;;;;14.77;5.15;;;;;;;;;;5026195;28;20045;-68
2023/01/14 03:33:34;;;;;;;16.50;5.60;;;;;;;;;;5024840;28;20045;-69
2023/01/14 03:36:02;;;;;;;12.73;4.40;;;;;;;;;;5025199;28;20060;-69
2023/01/14 03:38:30;;;;;;;13.95;4.93;;;;;;;;;;5025470;28;20128;-68
2023/01/14 03:40:59;;;;;;;14.30;5.22;;;;;;;;;;5026452;28;20056;-69
2023/01/14 03:43:37;;;;;;;15.82;5.30;;;;;;;;;;5025261;28;20029;-69
2023/01/14 03:46:04;;;;;;;17.13;5.90;;;;;;;;;;5026157;28;20129;-69
2023/01/14 03:48:31;;;;;;;18.38;6.70;;;;;;;;;;5026991;28;20513;-68
2023/01/14 03:51:01;;;;;;;9.15;4.68;;;;;;;;;;5024546;28;20075;-71
2023/01/14 03:53:46;;;;;;;9.60;4.00;;;;;;;;;;5024631;28;20037;-69
2023/01/14 03:56:21;;;;;;;11.60;2.88;;;;;;;;;;5025312;28;20057;-70
2023/01/14 03:58:54;;;;;;;10.05;2.70;;;;;;;;;;5025522;28;20063;-69
2023/01/14 04:01:27;;;;;;;12.60;4.15;;;;;;;;;;5025661;28;20486;-68
2023/01/14 04:03:54;;;;;;;12.27;3.78;;;;;;;;;;5026248;28;20452;-69
2023/01/14 04:06:21;;;;;;;9.57;3.65;;;;;;;;;;5024847;28;20584;-71
2023/01/14 04:08:48;;;;;;;9.80;3.47;;;;;;;;;;5024435;28;20041;-70
2023/01/14 04:11:14;;;;;;;8.32;3.80;;;;;;;;;;5025809;28;20041;-70
2023/01/14 04:16:26;;;;;;;10.88;3.15;;;;;;;;;;5024468;28;20174;-70
2023/01/14 04:18:52;;;;;;;9.98;3.65;;;;;;;;;;5024946;28;20525;-69
2023/01/14 04:21:19;;;;;;;8.82;3.20;;;;;;;;;;5024218;28;20524;-69
2023/01/14 04:23:46;;;;;;;8.15;3.45;;;;;;;;;;5024436;28;20076;-69
2023/01/14 04:26:13;;;;;;;12.50;3.85;;;;;;;;;;5026421;28;20136;-69
2023/01/14 04:28:39;;;;;;;7.97;3.70;;;;;;;;;;5023342;28;20081;-70
2023/01/14 04:31:06;;;;;;;13.30;4.15;;;;;;;;;;5026084;28;20061;-69
2023/01/14 04:33:33;;;;;;;10.93;3.90;;;;;;;;;;5024194;28;20045;-69
2023/01/14 04:35:59;;;;;;;13.75;4.05;;;;;;;;;;5024475;28;20055;-71
2023/01/14 04:38:26;;;;;;;10.52;5.05;;;;;;;;;;5023396;28;20033;-71
2023/01/14 04:40:56;;;;;;;17.25;8.20;;;;;;;;;;5026763;28;20041;-70
2023/01/14 04:43:23;;;;;;;16.42;6.68;;;;;;;;;;5024815;28;20079;-69
2023/01/14 04:45:53;;;;;;;13.10;5.90;;;;;;;;;;5023900;28;20036;-70
2023/01/14 04:48:20;;;;;;;16.33;6.10;;;;;;;;;;5006265;28;20075;-69
2023/01/14 04:50:47;;;;;;;12.50;5.70;;;;;;;;;;5025034;28;20036;-70
2023/01/14 04:53:18;;;;;;;14.43;4.93;;;;;;;;;;5023677;28;20045;-69
2023/01/14 04:55:46;;;;;;;17.05;6.13;;;;;;;;;;5025687;28;20079;-70
2023/01/14 04:58:14;;;;;;;11.48;4.97;;;;;;;;;;5024111;28;20033;-68
2023/01/14 05:00:40;;;;;;;8.55;4.43;;;;;;;;;;5024520;28;20041;-69
2023/01/14 05:03:08;;;;;;;12.00;4.72;;;;;;;;;;5024560;28;20103;-69
2023/01/14 05:05:35;;;;;;;9.98;4.30;;;;;;;;;;5025354;28;20072;-71
2023/01/14 05:08:03;;;;;;;10.23;4.90;;;;;;;;;;5025251;28;20514;-70
2023/01/14 05:10:30;;;;;;;12.70;4.85;;;;;;;;;;5025116;28;20593;-70
2023/01/14 05:12:57;;;;;;;12.45;4.70;;;;;;;;;;5025568;28;20045;-69
2023/01/14 05:15:24;;;;;;;10.48;4.20;;;;;;;;;;5023482;28;20149;-69
2023/01/14 05:18:00;;;;;;;10.40;4.20;;;;;;;;;;5023942;28;20508;-70
2023/01/14 05:20:27;;;;;;;6.63;2.88;;;;;;;;;;5027084;28;20506;-69
2023/01/14 05:22:59;;;;;;;10.02;2.92;;;;;;;;;;5030654;28;20048;-70
2023/01/14 05:25:26;;;;;;;6.40;2.53;;;;;;;;;;5026730;28;20065;-70
2023/01/14 05:27:53;;;;;;;7.90;2.70;;;;;;;;;;5029487;28;20045;-68
2023/01/14 05:30:19;;;;;;;6.93;2.83;;;;;;;;;;5029249;28;20041;-70
2023/01/14 05:32:46;;;;;;;6.75;2.53;;;;;;;;;;5029126;28;20509;-68
2023/01/14 05:35:12;;;;;;;6.18;2.35;;;;;;;;;;5028871;28;20056;-70
2023/01/14 05:37:39;;;;;;;6.28;2.85;;;;;;;;;;5020913;28;20101;-69
2023/01/14 05:40:06;;;;;;;5.47;2.50;;;;;;;;;;5028836;28;20387;-70
2023/01/14 05:48:02;;;;;;;8.02;3.03;;;;;;;;;;5028723;28;20497;-69
2023/01/14 05:50:29;;;;;;;6.90;2.85;;;;;;;;;;5028861;28;20052;-68
2023/01/14 05:52:56;;;;;;;7.93;3.20;;;;;;;;;;5028308;28;20044;-68
2023/01/14 05:55:22;;;;;;;6.28;2.58;;;;;;;;;;5009422;28;20141;-69
2023/01/14 05:57:49;;;;;;;8.75;2.65;;;;;;;;;;5028108;28;20073;-69
2023/01/14 06:08:32;;;;;;;8.52;2.13;;;;;;;;;;5028081;28;20053;-69
2023/01/14 06:11:00;;;;;;;5.20;2.00;;;;;;;;;;5027671;28;20041;-70
2023/01/14 06:13:26;;;;;;;5.57;1.83;;;;;;;;;;5025289;28;20055;-69
2023/01/14 06:15:55;;;;;;;4.10;1.67;;;;;;;;;;5028827;28;20076;-69
2023/01/14 06:18:23;;;;;;;4.13;1.58;;;;;;;;;;5026917;28;20043;-69
2023/01/14 06:20:50;;;;;;;5.40;1.90;;;;;;;;;;5028140;28;20225;-69
2023/01/14 06:23:18;;;;;;;9.93;2.53;;;;;;;;;;5027553;28;20445;-69
2023/01/14 06:25:47;;;;;;;6.78;2.40;;;;;;;;;;5026772;28;20034;-69
2023/01/14 06:28:15;;;;;;;7.10;2.00;;;;;;;;;;5026797;28;20041;-69
2023/01/14 06:30:41;;;;;;;3.75;1.80;;;;;;;;;;5028747;28;20037;-70
2023/01/14 06:33:08;;;;;;;6.20;1.65;;;;;;;;;;5027669;28;20041;-69
2023/01/14 06:35:36;;;;;;;10.55;2.08;;;;;;;;;;5026119;28;20041;-70
2023/01/14 06:38:02;;;;;;;6.80;2.30;;;;;;;;;;5026976;28;20822;-68
2023/01/14 06:40:29;;;;;;;9.18;2.60;;;;;;;;;;5027004;28;20033;-69
2023/01/14 06:42:56;;;;;;;11.30;2.00;;;;;;;;;;5028384;28;20045;-68
2023/01/14 06:45:24;;;;;;;5.15;2.10;;;;;;;;;;5027317;28;20118;-68
2023/01/14 06:47:51;;;;;;;5.20;2.08;;;;;;;;;;5026882;28;20075;-68
2023/01/14 06:50:18;;;;;;;4.32;2.00;;;;;;;;;;5009073;28;20087;-69
2023/01/14 06:52:45;;;;;;;5.13;2.00;;;;;;;;;;5026883;28;20170;-69
2023/01/14 06:55:12;;;;;;;4.68;1.70;;;;;;;;;;5027407;28;20123;-69
2023/01/14 06:57:41;;;;;;;5.70;2.03;;;;;;;;;;5026386;28;20037;-69
2023/01/14 07:00:08;;;;;;;5.90;2.03;;;;;;;;;;5027202;28;20044;-67
2023/01/14 07:02:35;;;;;;;6.80;2.13;;;;;;;;;;5027110;28;20045;-69
2023/01/14 07:05:02;;;;;;;4.50;2.10;;;;;;;;;;5027058;28;20080;-69
2023/01/14 07:07:28;;;;;;;5.47;1.90;;;;;;;;;;5018814;28;20041;-68
2023/01/14 07:09:55;;;;;;;4.63;1.90;;;;;;;;;;5025643;28;20104;-68
2023/01/14 07:12:23;;;;;;;5.57;2.03;;;;;;;;;;5026729;28;20080;-68
2023/01/14 07:14:49;;;;;;;7.30;2.42;;;;;;;;;;5028295;28;20041;-68
2023/01/14 07:17:16;;;;;;;6.78;3.40;;;;;;;;;;5028079;28;20041;-68
2023/01/14 07:19:43;;;;;;;7.28;2.70;;;;;;;;;;5025750;28;20492;-68
2023/01/14 07:22:10;;;;;;;7.43;1.88;;;;;;;;;;5027458;28;20498;-68
2023/01/14 07:24:37;;;;;;;7.20;2.25;;;;;;;;;;5026767;28;20048;-70
2023/01/14 07:27:23;;;;;;;4.70;1.58;;;;;;;;;;4982372;28;20038;-68
2023/01/14 07:29:50;;;;;;;5.30;1.60;;;;;;;;;;4982755;28;20714;-68
2023/01/14 07:32:17;;;;;;;5.88;1.80;;;;;;;;;;4981864;28;20034;-70
2023/01/14 07:34:44;;;;;;;4.32;1.88;;;;;;;;;;4983273;28;20066;-70
2023/01/14 07:37:11;;;;;;;4.50;1.90;;;;;;;;;;4982419;28;20077;-71
2023/01/14 07:39:37;;;;;;;6.35;1.80;;;;;;;;;;4977269;28;20087;-69
2023/01/14 07:42:04;;;;;;;4.05;1.48;;;;;;;;;;4984990;28;20053;-69
2023/01/14 07:44:31;;;;;;;4.50;1.77;;;;;;;;;;4980569;28;20042;-70
2023/01/14 07:46:58;;;;;;;4.20;1.58;;;;;;;;;;4983309;28;20042;-70
2023/01/14 07:49:25;;;;;;;4.65;1.60;;;;;;;;;;4976288;28;20083;-69
2023/01/14 07:51:52;;;;;;;4.55;1.90;;;;;;;;;;4983166;28;20042;-69
2023/01/14 07:54:19;;;;;;;4.85;1.50;;;;;;;;;;4979814;28;20799;-69
2023/01/14 07:56:48;;;;;;;6.78;1.65;;;;;;;;;;4977674;28;20045;-69
2023/01/14 07:59:15;;;;;;;5.72;1.63;;;;;;;;;;4982608;28;20044;-68
2023/01/14 08:01:42;;;;;;;4.15;1.75;;;;;;;;;;4980539;28;20091;-69
2023/01/14 08:04:09;;;;;;;4.10;1.65;;;;;;;;;;4989161;28;20095;-69
2023/01/14 08:06:35;;;;;;;5.38;1.95;;;;;;;;;;5019638;28;20045;-69
2023/01/14 08:09:03;;;;;;;4.47;1.63;;;;;;;;;;5020517;28;20115;-70
2023/01/14 08:11:30;;;;;;;6.38;1.83;;;;;;;;;;5023491;28;20045;-69
2023/01/14 08:13:57;;;;;;;4.78;1.65;;;;;;;;;;5024150;28;20041;-69
2023/01/14 08:16:24;;;;;;;4.65;1.48;;;;;;;;;;5004218;28;20038;-69
2023/01/14 08:19:12;;;;;;;4.53;1.83;;;;;;;;;;4984709;28;20037;-68
2023/01/14 08:21:39;;;;;;;4.28;1.50;;;;;;;;;;4996680;28;20053;-68
2023/01/14 08:24:06;;;;;;;4.20;1.60;;;;;;;;;;4998055;28;20053;-69
2023/01/14 08:26:33;;;;;;;4.28;1.60;;;;;;;;;;4979922;28;20042;-70
2023/01/14 08:29:00;;;;;;;3.58;1.30;;;;;;;;;;4998992;28;20503;-68
2023/01/14 08:31:27;;;;;;;3.85;1.10;;;;;;;;;;4991366;28;20070;-68
2023/01/14 08:33:55;;;;;;;4.38;1.17;;;;;;;;;;4985200;28;21389;-69
2023/01/14 08:36:41;;;;;;;3.58;1.27;;;;;;;;;;4999169;28;20037;-68
2023/01/14 08:39:09;;;;;;;3.10;1.08;;;;;;;;;;4996288;28;20034;-69
2023/01/14 08:41:36;;;;;;;3.97;1.17;;;;;;;;;;4983849;28;20038;-69
2023/01/14 08:44:03;;;;;;;2.75;0.90;;;;;;;;;;4998521;28;20042;-68
2023/01/14 08:46:30;;;;;;;2.80;0.88;;;;;;;;;;5005042;28;20046;-69
2023/01/14 08:48:57;;;;;;;3.33;0.98;;;;;;;;;;5018910;28;20100;-69
2023/01/14 08:51:28;;;;;;;4.68;1.05;;;;;;;;;;5018663;28;20073;-70
2023/01/14 08:53:55;;;;;;;3.22;1.10;;;;;;;;;;5035920;28;20045;-69
2023/01/14 08:56:22;;;;;;;3.90;1.23;;;;;;;;;;5036381;28;20112;-69
2023/01/14 08:58:51;;;;;;;5.85;1.02;;;;;;;;;;5010267;28;20155;-67
2023/01/14 09:01:18;;;;;;;7.88;1.83;;;;;;;;;;5000623;28;20090;-69
2023/01/14 09:03:48;;;;;;;4.30;1.33;;;;;;;;;;5026942;28;20096;-68
2023/01/14 09:06:16;;;;;;;5.20;1.67;;;;;;;;;;5026473;28;20045;-68
2023/01/14 09:17:10;;;;;;;3.28;1.25;;;;;;;;;;5028203;28;20086;-69
2023/01/14 09:19:38;;;;;;;3.47;1.27;;;;;;;;;;5028069;28;20041;-67
2023/01/14 09:22:06;;;;;;;3.08;1.25;;;;;;;;;;5031680;28;20052;-67
2023/01/14 09:24:33;;;;;;;4.22;1.30;;;;;;;;;;5011077;28;20168;-69
2023/01/14 09:27:01;;;;;;;3.55;1.40;;;;;;;;;;5033267;28;20049;-71
2023/01/14 09:29:29;;;;;;;3.33;1.27;;;;;;;;;;5028082;28;20044;-68
2023/01/14 09:31:56;;;;;;;5.20;1.15;;;;;;;;;;5010716;28;20067;-69
2023/01/14 09:34:26;;;;;;;4.38;1.08;;;;;;;;;;5028312;28;20547;-70
2023/01/14 09:37:12;;;;;;;3.20;1.17;;;;;;;;;;4950021;28;20161;-69
2023/01/14 09:39:39;;;;;;;4.07;1.40;;;;;;;;;;4959962;28;20050;-69
2023/01/14 09:42:08;;;;;;;4.15;1.02;;;;;;;;;;4963704;28;20093;-70
2023/01/14 09:44:35;;;;;;;4.00;1.50;;;;;;;;;;4962238;28;20046;-69
2023/01/14 09:47:02;;;;;;;4.18;1.20;;;;;;;;;;4956077;28;20070;-68
2023/01/14 09:49:29;;;;;;;3.60;1.35;;;;;;;;;;4962160;28;20051;-68
2023/01/14 09:51:56;;;;;;;3.15;1.05;;;;;;;;;;4940809;28;20050;-68
2023/01/14 09:54:23;;;;;;;3.92;0.95;;;;;;;;;;4960738;28;21048;-68
2023/01/14 09:56:54;;;;;;;4.53;1.25;;;;;;;;;;4963830;28;20039;-68
2023/01/14 09:59:39;;;;;;;5.50;1.10;;;;;;;;;;4961927;28;20618;-68
2023/01/14 10:02:14;;;;;;;3.47;1.10;;;;;;;;;;4962278;28;20050;-68
2023/01/14 10:04:45;;;;;;;5.05;1.10;;;;;;;;;;4962657;28;20078;-68
2023/01/14 10:07:13;;;;;;;5.68;1.27;;;;;;;;;;4944381;28;20046;-69
2023/01/14 10:09:50;;;;;;;3.50;1.02;;;;;;;;;;4962330;28;20039;-68
2023/01/14 10:12:19;;;;;;;3.47;1.00;;;;;;;;;;4961847;28;20131;-69
2023/01/14 10:15:02;;;;;;;4.20;1.05;;;;;;;;;;4995500;28;20433;-69
2023/01/14 10:17:33;;;;;;;2.53;0.93;;;;;;;;;;5026053;28;20718;-69
2023/01/14 10:20:04;;;;;;;3.35;0.80;;;;;;;;;;5027294;28;20658;-69
2023/01/14 10:22:41;;;;;;;3.63;1.10;;;;;;;;;;5028390;28;20037;-67
2023/01/14 10:25:16;;;;;;;3.10;1.10;;;;;;;;;;5027072;28;20160;-68
2023/01/14 10:27:44;;;;;;;3.72;1.27;;;;;;;;;;5027365;28;20091;-68
2023/01/14 10:30:17;;;;;;;3.90;1.00;;;;;;;;;;5026579;28;20144;-69
2023/01/14 10:32:44;;;;;;;2.38;0.98;;;;;;;;;;5028919;28;20040;-69
2023/01/14 10:35:15;;;;;;;4.28;1.10;;;;;;;;;;5029498;28;20041;-69
2023/01/14 10:37:42;;;;;;;2.85;1.10;;;;;;;;;;5026908;28;20029;-69
2023/01/14 10:40:22;;;;;;;2.40;0.90;;;;;;;;;;5028453;28;20443;-67
2023/01/14 10:42:49;;;;;;;3.38;1.05;;;;;;;;;;5027043;28;20049;-69
2023/01/14 10:45:15;;;;;;;3.22;1.10;;;;;;;;;;5027525;28;20076;-68
2023/01/14 10:47:43;;;;;;;3.22;1.08;;;;;;;;;;5025323;28;20565;-68
2023/01/14 10:50:30;;;;;;;4.43;1.10;;;;;;;;;;5026578;28;20076;-68
2023/01/14 10:53:15;;;;;;;4.50;1.15;;;;;;;;;;5026201;28;20098;-69
2023/01/14 10:55:47;;;;;;;3.15;1.10;;;;;;;;;;5026609;28;20055;-68
2023/01/14 10:58:40;;;;;;;4.50;1.02;;;;;;;;;;5025210;28;20064;-69
2023/01/14 11:01:08;;;;;;;3.85;1.17;;;;;;;;;;5021796;28;20091;-69
2023/01/14 11:03:38;;;;;;;3.28;1.23;;;;;;;;;;5025572;28;20041;-69
2023/01/14 11:06:08;;;;;;;4.13;1.13;;;;;;;;;;5007597;28;20421;-69
2023/01/14 11:08:42;;;;;;;3.63;0.95;;;;;;;;;;5023348;28;20423;-69
2023/01/14 11:11:08;;;;;;;4.13;1.30;;;;;;;;;;5027903;28;20087;-69
2023/01/14 11:13:41;;;;;;;2.90;1.00;;;;;;;;;;5026017;28;21879;-68
2023/01/14 11:16:29;;;;;;;3.00;0.90;;;;;;;;;;5027375;28;20703;-68
2023/01/14 11:18:59;;;;;;;2.67;0.90;;;;;;;;;;5024908;28;20048;-68
2023/01/14 11:21:29;;;;;;;2.92;0.95;;;;;;;;;;5026991;28;20055;-67
2023/01/14 11:23:58;;;;;;;3.25;1.00;;;;;;;;;;5017936;28;20025;-67
2023/01/14 11:26:24;;;;;;;3.08;1.00;;;;;;;;;;5026829;28;20690;-69
2023/01/14 11:28:52;;;;;;;3.22;0.90;;;;;;;;;;5026342;28;20793;-68
2023/01/14 11:31:33;;;;;;;3.17;0.82;;;;;;;;;;5023981;28;20067;-68
2023/01/14 11:34:00;;;;;;;2.35;0.80;;;;;;;;;;5007634;28;20104;-68
2023/01/14 11:36:29;;;;;;;4.97;0.98;;;;;;;;;;5024436;28;20099;-70
2023/01/14 11:38:58;;;;;;;2.75;0.70;;;;;;;;;;5024867;28;20034;-68
2023/01/14 11:41:36;;;;;;;4.25;0.90;;;;;;;;;;5027002;28;20041;-68
2023/01/14 11:44:20;;;;;;;2.67;0.90;;;;;;;;;;5025912;28;20412;-68
2023/01/14 11:47:01;;;;;;;2.50;0.80;;;;;;;;;;5025688;28;20122;-67
2023/01/14 11:49:28;;;;;;;2.65;0.88;;;;;;;;;;5025085;28;20041;-68
2023/01/14 11:52:02;;;;;;;2.33;0.70;;;;;;;;;;5025834;28;20053;-69
2023/01/14 11:54:35;;;;;;;2.58;0.90;;;;;;;;;;5025430;28;20132;-69
2023/01/14 11:57:03;;;;;;;2.22;0.68;;;;;;;;;;5026527;28;20044;-69
2023/01/14 11:59:34;;;;;;;4.45;0.90;;;;;;;;;;5025737;28;20073;-68
2023/01/14 12:02:06;;;;;;;3.05;0.90;;;;;;;;;;5026303;28;20132;-68
2023/01/14 12:04:36;;;;;;;1.95;0.70;;;;;;;;;;5024512;28;20392;-69
2023/01/14 12:07:05;;;;;;;2.58;0.77;;;;;;;;;;5025071;28;20462;-68
2023/01/14 12:09:44;;;;;;;3.00;0.60;;;;;;;;;;5020288;28;20052;-68
2023/01/14 12:12:30;;;;;;;2.33;0.75;;;;;;;;;;5023521;28;20401;-68
2023/01/14 12:17:50;;;;;;;4.05;0.85;;;;;;;;;;5025050;28;20137;-68
2023/01/14 12:20:20;;;;;;;2.60;0.75;;;;;;;;;;5017873;28;20083;-68
2023/01/14 12:22:52;;;;;;;2.20;0.63;;;;;;;;;;5026136;28;20430;-68
2023/01/14 12:25:28;;;;;;;2.55;0.80;;;;;;;;;;5025681;28;20029;-68
2023/01/14 12:27:54;;;;;;;2.45;0.70;;;;;;;;;;5022437;28;20603;-70
2023/01/14 12:30:21;;;;;;;1.77;0.52;;;;;;;;;;5023706;28;20053;-69
2023/01/14 12:32:52;;;;;;;3.47;0.65;;;;;;;;;;5007314;28;20794;-68
2023/01/14 12:35:20;;;;;;;1.83;0.60;;;;;;;;;;5025997;28;20501;-68
2023/01/14 12:45:41;;;;;;;2.80;0.77;;;;;;;;;;5010777;28;20600;-68
2023/01/14 12:46:29;;;;;;;1.98;0.60;;;;;;;;;;5029034;28;20044;-68
2023/01/14 12:48:58;;;;;;;2.33;0.70;;;;;;;;;;5028340;28;20049;-68
2023/01/14 12:51:26;;;;;;;3.30;0.68;;;;;;;;;;5029063;28;20126;-68
2023/01/14 12:54:06;;;;;;;2.72;0.93;;;;;;;;;;5029462;28;20056;-68
2023/01/14 12:56:36;;;;;;;3.22;0.90;;;;;;;;;;5028076;28;20323;-68
2023/01/14 12:59:04;;;;;;;3.00;0.90;;;;;;;;;;5024536;28;20052;-68
2023/01/14 13:01:34;;;;;;;3.38;1.00;;;;;;;;;;5027773;28;20072;-68
2023/01/14 13:04:03;;;;;;;4.00;0.80;;;;;;;;;;5027891;28;20116;-68
2023/01/14 13:06:35;;;;;;;1.30;0.57;;;;;;;;;;5022129;28;20462;-67
2023/01/14 13:09:02;;;;;;;3.35;0.77;;;;;;;;;;5027225;28;20060;-67
2023/01/14 13:11:30;;;;;;;2.67;0.70;;;;;;;;;;5027865;28;20038;-67
2023/01/14 13:13:59;;;;;;;2.35;0.63;;;;;;;;;;5028483;28;20045;-67
2023/01/14 13:16:32;;;;;;;2.60;0.70;;;;;;;;;;5009738;28;20033;-72
2023/01/14 13:19:00;;;;;;;3.42;0.77;;;;;;;;;;5027545;28;20076;-71
2023/01/14 13:21:45;;;;;;;2.03;0.77;;;;;;;;;;5016923;28;20041;-71
2023/01/14 13:24:27;;;;;;;3.75;0.70;;;;;;;;;;5016702;28;20037;-72
2023/01/14 13:26:55;;;;;;;3.50;0.73;;;;;;;;;;5028474;28;20041;-70
2023/01/14 13:29:23;;;;;;;2.45;0.63;;;;;;;;;;5004767;28;20064;-70
2023/01/14 13:31:50;;;;;;;3.28;0.60;;;;;;;;;;5027143;28;20580;-71
2023/01/14 13:34:23;;;;;;;2.10;0.60;;;;;;;;;;5011982;28;20049;-69
2023/01/14 13:36:56;;;;;;;1.98;0.63;;;;;;;;;;5010064;28;20061;-70
2023/01/14 13:39:24;;;;;;;1.88;0.50;;;;;;;;;;5029023;28;20490;-70
2023/01/14 13:41:52;;;;;;;2.05;0.60;;;;;;;;;;5025151;28;20047;-70
2023/01/14 13:44:29;;;;;;;1.95;0.50;;;;;;;;;;5010031;28;20741;-70
2023/01/14 13:46:59;;;;;;;2.50;0.60;;;;;;;;;;5028742;28;20136;-69
2023/01/14 13:49:29;;;;;;;1.33;0.40;;;;;;;;;;5028001;28;20063;-70
2023/01/14 13:52:02;;;;;;;1.75;0.50;;;;;;;;;;5027045;28;20060;-69
2023/01/14 13:54:34;;;;;;;1.45;0.50;;;;;;;;;;5027105;28;20136;-70
2023/01/14 13:57:16;;;;;;;1.27;0.50;;;;;;;;;;5011857;28;20603;-70
2023/01/14 13:59:44;;;;;;;1.33;0.40;;;;;;;;;;5029536;28;20044;-69
2023/01/14 14:02:29;;;;;;;0.80;0.40;;;;;;;;;;5029408;28;20033;-70
2023/01/14 14:04:55;;;;;;;4.53;0.60;;;;;;;;;;5044328;28;20025;-67
2023/01/14 14:07:41;;;;;;;1.60;0.40;;;;;;;;;;5043010;28;20038;-69
2023/01/14 14:10:11;;;;;;;1.63;0.60;;;;;;;;;;5047984;28;20037;-70
2023/01/14 14:15:28;;;;;;;1.92;0.50;;;;;;;;;;5015004;28;20075;-69
2023/01/14 14:17:58;;;;;;;2.13;0.40;;;;;;;;;;5021514;28;20069;-68
2023/01/14 14:20:27;;;;;;;1.52;0.40;;;;;;;;;;5026803;28;20040;-68
2023/01/14 14:22:57;;;;;;;1.00;0.40;;;;;;;;;;5026517;28;20065;-68
2023/01/14 14:25:53;;;;;;;0.73;0.40;;;;;;;;;;5027046;28;20037;-69
2023/01/14 14:28:24;;;;;;;0.50;0.40;;;;;;;;;;5006241;28;20041;-68
2023/01/14 14:31:01;;;;;;;0.68;0.30;;;;;;;;;;5027934;28;20085;-70
2023/01/14 14:33:40;;;;;;;0.93;0.40;;;;;;;;;;5027908;28;20103;-67
2023/01/14 14:36:10;;;;;;;0.75;0.30;;;;;;;;;;5028326;28;20569;-69
2023/01/14 14:38:38;;;;;;;0.90;0.38;;;;;;;;;;5022228;28;20056;-69
2023/01/14 14:41:13;;;;;;;0.65;0.30;;;;;;;;;;5028222;28;20155;-68
2023/01/14 14:43:41;;;;;;;0.88;0.40;;;;;;;;;;5027275;28;20537;-70
2023/01/14 14:46:10;;;;;;;1.98;0.57;;;;;;;;;;5027649;28;20045;-67
2023/01/14 14:48:40;;;;;;;1.38;0.40;;;;;;;;;;5014180;28;20124;-69
2023/01/14 14:51:36;;;;;;;1.00;0.40;;;;;;;;;;5023881;28;20627;-67
2023/01/14 14:54:02;;;;;;;3.55;1.10;;;;;;;;;;4993837;28;20049;-66
2023/01/14 14:56:30;;;;;;;1.40;0.50;;;;;;;;;;5027245;28;20064;-65
2023/01/14 14:58:58;;;;;;;1.50;0.50;;;;;;;;;;5026915;28;20084;-69
2023/01/14 15:01:37;;;;;;;1.30;0.50;;;;;;;;;;5022950;28;20517;-69
2023/01/14 15:04:05;;;;;;;1.05;0.40;;;;;;;;;;5025704;28;20033;-70
2023/01/14 15:06:34;;;;;;;4.82;0.55;;;;;;;;;;5022657;28;20045;-67
2023/01/14 15:09:03;;;;;;;1.25;0.50;;;;;;;;;;5019615;28;20041;-67
2023/01/14 15:11:32;;;;;;;1.02;0.40;;;;;;;;;;5020812;28;20439;-67
2023/01/14 15:13:59;;;;;;;5.47;0.70;;;;;;;;;;5027631;28;20049;-67
2023/01/14 15:16:30;;;;;;;1.55;0.55;;;;;;;;;;5026423;28;20037;-69
2023/01/14 15:19:00;;;;;;;2.35;0.60;;;;;;;;;;5027848;28;20076;-68
2023/01/14 15:21:29;;;;;;;1.98;0.52;;;;;;;;;;5026823;28;20044;-68
2023/01/14 15:23:57;;;;;;;1.98;0.50;;;;;;;;;;5028165;28;20332;-68
2023/01/14 15:26:28;;;;;;;1.60;0.50;;;;;;;;;;5028502;28;20071;-67
2023/01/14 15:28:56;;;;;;;2.55;0.70;;;;;;;;;;5013272;28;20029;-68
2023/01/14 15:31:32;;;;;;;1.48;0.50;;;;;;;;;;5018301;28;20041;-72
2023/01/14 15:34:07;;;;;;;1.67;0.52;;;;;;;;;;5026197;28;20478;-68
2023/01/14 15:36:38;;;;;;;1.48;0.55;;;;;;;;;;5029223;28;20241;-67